Portada
METAR-TAF:

METAR-TAF

Aeropuertos :

Aeropuerto Internacional de Pohnpei

Pohnpei, Micronesia

latitud: 06-59N, longitud: 158-12E, altitud: 2 m

Observación

El informe se hizo hace 11 horas y 44 minutos, a las 02:50 UTC
Viento 8 kt del este
Temperatura 31°C
Humedad 75%
Presión 1007 hPa
Visibilidad: 24.1 km
Nubes dispersas a una altura de 1800 ft
Cielo nuboso a una altura de 13000 ft
Cielo cubierto a una altura de 30000 ft

METAR: PTPN 170250Z 09008KT 15SM SCT018 BKN130 OVC300 31/26 A2973 RMK LAST

Hora: 01:34 (14:34 UTC)

Pronóstico

El informe se hizo hace 15 horas y 14 minutos, a las 23:20 UTC
Pronóstico válido del 17 a las 00 UTC al 17 a las 24 UTC
Viento 8 kt del este-sureste
Visibilidad: 10 km
Nubes dispersas a una altura de 1800 ft
Nubes dispersas a una altura de 8000 ft
chaparrones en las proximidades

TAF: PTPN 162320Z 1700/1724 12008KT P6SM VCSH SCT018 SCT080

Observaciones y pronósticos meteorológicos de más de 4000 aeropuertos (mensajes METAR y TAF).

Los puntos amarillos y rojos representan las estaciones disponibles.

Ponga el ratón en el punto deseado para ver el nombre de la estación.

Haga clic para ver las observaciones y los pronósticos meteorológicos.

Para cambiar el mapa : haga clic en los botones verdes con una cruz de color negro para hacer un zoom, en el botón verde con un guión para alejar o en las flechas verdes para mapas adyacentes.


METAR-TAF: